Time;durP1;ratioP1;P1;durP2;ratioP2;P2;SDS_P1;SDS_P2;PMS_P1;PMS_P2;Temp;Humidity;BMP_temperature;BMP_pressure;BME280_temperature;BME280_humidity;BME280_pressure;Samples;Min_cycle;Max_cycle;Signal;HPM_P1;HPM_P2
2022/07/16 00:01:23;;;;;;;6.00;2.10;;;;;;;18.02;60.68;99122.94;5104609;28;20221;-67
2022/07/16 00:04:00;;;;;;;5.75;1.73;;;;;;;17.82;60.51;99090.06;5104506;28;20053;-67
2022/07/16 00:06:28;;;;;;;7.72;2.22;;;;;;;17.75;60.08;99071.25;5104261;28;20036;-66
2022/07/16 00:08:54;;;;;;;3.55;1.90;;;;;;;18.10;60.28;99133.78;5103043;28;20094;-66
2022/07/16 00:11:21;;;;;;;5.63;2.10;;;;;;;18.00;60.18;99127.44;5104378;28;20040;-66
2022/07/16 00:13:47;;;;;;;4.50;2.20;;;;;;;18.04;60.05;99134.19;5104152;28;20027;-66
2022/07/16 00:16:14;;;;;;;6.85;2.10;;;;;;;17.92;60.80;99135.75;5104130;28;20316;-66
2022/07/16 00:21:25;;;;;;;5.10;2.00;;;;;;;17.91;60.81;99134.09;5104089;28;20209;-67
2022/07/16 00:23:50;;;;;;;3.90;1.75;;;;;;;17.93;61.38;99128.75;5103973;28;20035;-67
2022/07/16 00:26:17;;;;;;;4.88;2.45;;;;;;;17.87;61.26;99131.69;5102463;28;20016;-67
2022/07/16 00:28:42;;;;;;;2.90;1.75;;;;;;;17.85;60.94;99136.19;5103842;28;20476;-67
2022/07/16 00:31:08;;;;;;;6.72;2.15;;;;;;;17.80;61.03;99131.25;5115853;28;20049;-67
2022/07/16 00:33:33;;;;;;;4.35;2.08;;;;;;;17.85;61.89;99144.88;5105428;28;20035;-67
2022/07/16 00:35:59;;;;;;;7.18;2.22;;;;;;;17.82;61.75;99165.19;5103763;28;20312;-66
2022/07/16 00:38:25;;;;;;;2.80;1.83;;;;;;;17.84;60.84;99145.84;5103521;28;20016;-66
2022/07/16 00:40:50;;;;;;;5.25;2.00;;;;;;;17.80;61.28;99143.47;5103876;28;20201;-67
2022/07/16 00:43:16;;;;;;;5.22;2.20;;;;;;;17.82;61.71;99146.88;5102350;28;20024;-67
2022/07/16 00:45:42;;;;;;;3.88;1.85;;;;;;;17.72;61.20;99144.78;5104057;28;20262;-67
2022/07/16 00:48:08;;;;;;;6.78;2.20;;;;;;;17.73;61.79;99145.66;5103508;28;20024;-67
2022/07/16 00:50:36;;;;;;;3.75;1.90;;;;;;;17.69;61.47;99144.97;5103332;28;20054;-67
2022/07/16 00:53:03;;;;;;;7.97;2.45;;;;;;;17.33;62.10;99095.63;5103556;28;20095;-67
2022/07/16 00:55:29;;;;;;;4.70;2.20;;;;;;;17.68;62.49;99147.69;5103239;28;20034;-67
2022/07/16 00:57:57;;;;;;;4.03;2.20;;;;;;;17.69;62.13;99142.34;5103318;28;20032;-67
2022/07/16 01:00:23;;;;;;;4.53;2.28;;;;;;;17.60;61.97;99127.19;5103426;28;20040;-67
2022/07/16 01:02:49;;;;;;;5.07;2.20;;;;;;;17.66;62.61;99139.06;5103245;28;20236;-67
2022/07/16 01:05:15;;;;;;;6.20;2.33;;;;;;;17.68;62.17;99147.69;5103296;28;20031;-67
2022/07/16 01:07:42;;;;;;;6.32;2.65;;;;;;;17.69;62.08;99141.53;5103002;28;20027;-67
2022/07/16 01:10:08;;;;;;;7.45;2.30;;;;;;;17.58;62.87;99147.38;5103096;28;20032;-66
2022/07/16 01:12:34;;;;;;;7.78;2.45;;;;;;;17.56;62.84;99149.25;5103036;28;20039;-66
2022/07/16 01:15:00;;;;;;;5.13;2.58;;;;;;;17.54;62.54;99161.59;5102990;28;20074;-66
2022/07/16 01:17:26;;;;;;;5.75;2.30;;;;;;;17.47;63.24;99155.84;5102769;28;20062;-67
2022/07/16 01:19:52;;;;;;;4.03;2.05;;;;;;;17.56;63.05;99160.56;5103028;28;20073;-66
2022/07/16 01:22:19;;;;;;;9.07;2.65;;;;;;;17.53;63.11;99176.47;5102748;28;20096;-66
2022/07/16 01:24:45;;;;;;;5.13;2.38;;;;;;;17.41;63.86;99161.47;5102923;28;20026;-66
2022/07/16 01:27:11;;;;;;;5.63;2.15;;;;;;;17.41;63.99;99169.31;5102718;28;20052;-66
2022/07/16 01:29:36;;;;;;;6.28;2.20;;;;;;;17.37;64.34;99160.81;5102671;28;20023;-66
2022/07/16 01:32:02;;;;;;;6.05;2.70;;;;;;;17.38;64.69;99162.47;5102726;28;20296;-66
2022/07/16 01:34:28;;;;;;;5.78;2.30;;;;;;;17.38;64.39;99159.84;5102458;28;20073;-66
2022/07/16 01:36:58;;;;;;;5.75;2.53;;;;;;;17.08;65.11;99116.22;5102296;28;20061;-67
2022/07/16 01:39:25;;;;;;;4.53;2.20;;;;;;;17.30;65.49;99164.72;5101374;28;20324;-66
2022/07/16 01:41:56;;;;;;;3.30;2.17;;;;;;;17.33;65.98;99179.38;5102520;28;20099;-66
2022/07/16 01:44:24;;;;;;;3.90;2.40;;;;;;;17.30;65.51;99167.34;5102596;28;20087;-66
2022/07/16 01:46:51;;;;;;;6.70;2.65;;;;;;;17.32;65.14;99169.88;5102175;28;20028;-67
2022/07/16 01:49:17;;;;;;;7.18;2.53;;;;;;;17.30;65.94;99169.94;5102701;28;20092;-67
2022/07/16 01:51:43;;;;;;;5.38;2.17;;;;;;;17.30;65.54;99172.56;5102645;28;20040;-66
2022/07/16 01:54:08;;;;;;;5.68;2.42;;;;;;;17.30;66.57;99179.56;5102402;28;20031;-66
2022/07/16 01:56:34;;;;;;;6.35;2.75;;;;;;;17.28;66.43;99174.41;5102176;28;20027;-67
2022/07/16 01:59:00;;;;;;;3.67;2.30;;;;;;;17.24;66.58;99170.28;5093726;28;20063;-67
2022/07/16 02:01:26;;;;;;;5.70;2.13;;;;;;;17.27;66.94;99170.09;5087829;28;20061;-67
2022/07/16 02:03:51;;;;;;;5.35;2.53;;;;;;;17.27;66.92;99171.88;5102429;28;20073;-67
2022/07/16 02:06:17;;;;;;;6.60;2.50;;;;;;;17.33;67.13;99182.88;5102508;28;20039;-67
2022/07/16 02:08:43;;;;;;;5.10;2.20;;;;;;;17.29;67.38;99183.09;5102370;28;20305;-67
2022/07/16 02:11:08;;;;;;;4.00;2.42;;;;;;;17.20;66.89;99181.84;5102554;28;20317;-66
2022/07/16 02:13:34;;;;;;;5.25;2.35;;;;;;;17.29;66.44;99188.34;5102249;28;20086;-67
2022/07/16 02:16:00;;;;;;;5.20;2.50;;;;;;;17.30;66.60;99185.66;5102286;28;20027;-67
2022/07/16 02:18:26;;;;;;;4.10;2.30;;;;;;;17.28;67.06;99182.28;5102246;28;20024;-67
2022/07/16 02:20:52;;;;;;;5.18;2.30;;;;;;;17.33;67.44;99175.00;5102259;28;20024;-67
2022/07/16 02:23:18;;;;;;;5.47;2.72;;;;;;;17.34;67.51;99176.66;5102044;28;20031;-67
2022/07/16 02:25:44;;;;;;;5.32;2.35;;;;;;;17.37;67.09;99173.91;5101999;28;20079;-67
2022/07/16 02:28:09;;;;;;;5.75;2.33;;;;;;;17.41;67.58;99185.03;5101912;28;20319;-67
2022/07/16 02:30:41;;;;;;;6.00;2.65;;;;;;;17.34;67.53;99181.91;5102146;28;20212;-67
2022/07/16 02:33:08;;;;;;;7.38;2.50;;;;;;;17.35;66.96;99194.06;5102384;28;20032;-69
2022/07/16 02:35:35;;;;;;;8.57;3.10;;;;;;;17.39;66.84;99184.28;5101882;28;20074;-67
2022/07/16 02:38:01;;;;;;;3.22;2.15;;;;;;;17.42;66.56;99178.88;5102135;28;20084;-67
2022/07/16 02:40:27;;;;;;;6.53;2.35;;;;;;;17.43;66.20;99181.38;5101957;28;20317;-67
2022/07/16 02:42:53;;;;;;;4.60;2.40;;;;;;;17.48;66.33;99182.91;5102184;28;20060;-67
2022/07/16 02:45:19;;;;;;;5.63;2.40;;;;;;;17.50;65.75;99184.50;5101886;28;20035;-67
2022/07/16 02:47:44;;;;;;;6.88;2.33;;;;;;;17.59;66.50;99190.97;5102777;28;20083;-67
2022/07/16 02:50:10;;;;;;;6.78;2.25;;;;;;;17.54;66.15;99172.91;5105857;28;20044;-66
2022/07/16 02:52:36;;;;;;;6.40;2.53;;;;;;;17.67;66.46;99188.75;5105614;28;20020;-67
2022/07/16 02:55:04;;;;;;;4.90;2.30;;;;;;;17.40;66.38;99144.94;5096361;28;20047;-67
2022/07/16 02:57:30;;;;;;;7.05;2.28;;;;;;;17.62;66.44;99180.31;5105539;28;20042;-67
2022/07/16 02:59:55;;;;;;;7.03;2.30;;;;;;;17.73;65.61;99191.00;5105507;28;20020;-67
2022/07/16 03:02:21;;;;;;;8.68;2.20;;;;;;;17.74;65.47;99190.06;5105490;28;20020;-67
2022/07/16 03:04:46;;;;;;;9.35;2.00;;;;;;;17.70;65.86;99199.03;5105665;28;20031;-67
2022/07/16 03:07:12;;;;;;;4.97;2.10;;;;;;;17.77;64.83;99189.03;5105684;28;20020;-67
2022/07/16 03:09:38;;;;;;;4.63;2.00;;;;;;;17.83;64.58;99193.06;5105291;28;20055;-67
2022/07/16 03:12:04;;;;;;;7.88;1.88;;;;;;;17.86;64.99;99195.53;5105512;28;20036;-67
2022/07/16 03:14:30;;;;;;;5.93;2.15;;;;;;;17.88;64.45;99196.25;5105296;28;20051;-67
2022/07/16 03:16:55;;;;;;;7.22;2.35;;;;;;;17.94;64.34;99190.69;5105304;28;20349;-67
2022/07/16 03:19:21;;;;;;;3.92;1.88;;;;;;;18.00;63.89;99197.31;5105205;28;20381;-67
2022/07/16 03:21:47;;;;;;;4.05;2.00;;;;;;;17.94;64.80;99201.16;5104317;28;20031;-67
2022/07/16 03:24:12;;;;;;;8.02;2.20;;;;;;;18.00;64.05;99199.94;5105081;28;20024;-67
2022/07/16 03:26:38;;;;;;;4.97;2.00;;;;;;;18.11;64.03;99208.00;5104786;28;20039;-67
2022/07/16 03:29:03;;;;;;;6.43;2.08;;;;;;;18.04;64.42;99212.78;5105213;28;20364;-66
2022/07/16 03:31:29;;;;;;;3.15;1.90;;;;;;;18.06;64.23;99218.78;5119789;28;20064;-67
2022/07/16 03:33:55;;;;;;;6.82;1.85;;;;;;;18.16;63.98;99221.69;5124751;27;20023;-67
2022/07/16 03:36:21;;;;;;;3.25;1.50;;;;;;;18.17;63.33;99217.28;5105096;28;20251;-66
2022/07/16 03:39:04;;;;;;;5.60;1.80;;;;;;;18.20;63.09;99212.72;5104683;28;20027;-67
2022/07/16 03:41:31;;;;;;;7.20;1.95;;;;;;;18.28;62.97;99223.56;5104794;28;20016;-68
2022/07/16 03:43:58;;;;;;;4.15;1.70;;;;;;;18.31;63.15;99226.94;5104851;28;20020;-67
2022/07/16 03:46:24;;;;;;;3.85;2.00;;;;;;;18.22;63.23;99210.81;5104313;28;20036;-67
2022/07/16 03:48:50;;;;;;;4.78;1.70;;;;;;;18.43;62.64;99227.03;5104689;28;20084;-67
2022/07/16 03:51:16;;;;;;;5.10;1.70;;;;;;;18.47;62.83;99227.69;5104776;28;20105;-67
2022/07/16 03:53:42;;;;;;;5.40;1.70;;;;;;;18.48;61.96;99226.72;5104478;28;20330;-67
2022/07/16 03:56:08;;;;;;;5.15;1.60;;;;;;;18.54;61.72;99229.00;5104542;28;20065;-67
2022/07/16 03:58:34;;;;;;;4.38;1.70;;;;;;;18.64;61.51;99237.16;5103728;28;20344;-67
2022/07/16 04:00:59;;;;;;;2.70;1.58;;;;;;;18.72;61.51;99229.63;5104713;28;20341;-67
2022/07/16 04:03:25;;;;;;;5.25;1.90;;;;;;;18.77;60.38;99237.22;5104363;28;20043;-67
2022/07/16 04:05:51;;;;;;;5.00;1.75;;;;;;;18.82;60.92;99237.75;5104184;28;20078;-67
2022/07/16 04:08:17;;;;;;;6.15;1.95;;;;;;;18.88;61.75;99240.00;5104337;28;20099;-66
2022/07/16 04:10:43;;;;;;;3.28;1.67;;;;;;;18.86;62.08;99233.16;5104179;28;20028;-66
2022/07/16 04:13:08;;;;;;;4.13;1.80;;;;;;;18.89;61.41;99239.09;5103255;28;20035;-67
2022/07/16 04:15:34;;;;;;;4.70;1.75;;;;;;;18.92;61.31;99243.31;5104084;28;20032;-67
2022/07/16 04:18:00;;;;;;;5.55;1.73;;;;;;;18.86;61.08;99231.38;5103842;28;20062;-67
2022/07/16 04:20:25;;;;;;;2.15;1.60;;;;;;;18.94;60.03;99239.66;5102754;28;20042;-67
2022/07/16 04:22:51;;;;;;;3.50;1.58;;;;;;;18.99;60.53;99243.75;5104068;28;20338;-67
2022/07/16 04:25:16;;;;;;;5.53;1.45;;;;;;;19.01;59.39;99250.59;5104180;28;20085;-67
2022/07/16 04:27:43;;;;;;;2.72;1.50;;;;;;;19.06;58.25;99250.31;5103814;28;20269;-67
2022/07/16 04:30:09;;;;;;;3.40;1.30;;;;;;;19.00;59.05;99242.81;5107289;28;20046;-67
2022/07/16 04:32:36;;;;;;;4.20;1.50;;;;;;;18.96;59.04;99250.03;5124368;28;20039;-67
2022/07/16 04:35:03;;;;;;;2.63;1.30;;;;;;;19.09;59.05;99260.59;5105492;28;20024;-66
2022/07/16 04:37:28;;;;;;;3.47;1.30;;;;;;;19.12;59.01;99258.59;5103694;28;20031;-67
2022/07/16 04:39:54;;;;;;;2.90;1.40;;;;;;;19.20;59.09;99254.69;5103542;28;20051;-67
2022/07/16 04:42:20;;;;;;;2.60;1.33;;;;;;;19.17;58.85;99249.59;5103421;28;20031;-66
2022/07/16 04:44:45;;;;;;;4.18;1.50;;;;;;;19.23;59.35;99255.31;5103708;28;20297;-66
2022/07/16 04:47:11;;;;;;;4.05;1.60;;;;;;;19.28;58.57;99253.25;5103460;28;20070;-66
2022/07/16 04:49:37;;;;;;;4.40;1.83;;;;;;;19.32;58.31;99259.13;5103391;28;20024;-66
2022/07/16 04:52:04;;;;;;;4.13;1.92;;;;;;;19.36;58.37;99260.59;5103241;28;20027;-66
2022/07/16 04:54:30;;;;;;;2.38;1.60;;;;;;;19.37;57.69;99259.69;5103318;28;20024;-66
2022/07/16 04:56:56;;;;;;;2.72;1.30;;;;;;;19.48;58.31;99266.84;5102409;28;20035;-66
2022/07/16 04:59:21;;;;;;;3.17;1.30;;;;;;;19.46;57.72;99266.94;5103306;28;20309;-66
2022/07/16 05:01:47;;;;;;;2.85;1.02;;;;;;;19.54;57.41;99268.22;5103322;28;20069;-66
2022/07/16 05:04:12;;;;;;;2.40;1.10;;;;;;;19.64;58.01;99269.31;5103108;28;20020;-68
2022/07/16 05:06:38;;;;;;;2.55;1.30;;;;;;;19.78;57.05;99269.25;5103077;28;20028;-67
2022/07/16 05:09:04;;;;;;;2.63;1.55;;;;;;;19.73;56.75;99257.38;5103408;28;20035;-67
2022/07/16 05:11:30;;;;;;;6.03;1.30;;;;;;;19.89;56.67;99259.84;5102297;28;20347;-67
2022/07/16 05:13:56;;;;;;;3.35;1.30;;;;;;;19.97;56.25;99252.28;5102812;28;20028;-67
2022/07/16 05:16:23;;;;;;;2.95;1.38;;;;;;;20.09;57.37;99267.22;5102950;28;20095;-67
2022/07/16 05:18:49;;;;;;;2.30;1.33;;;;;;;20.12;57.18;99258.28;5103192;28;20085;-67
2022/07/16 05:21:15;;;;;;;6.40;1.65;;;;;;;20.28;56.75;99264.19;5102990;28;20020;-67
2022/07/16 05:23:41;;;;;;;2.05;1.20;;;;;;;20.30;56.31;99269.34;5102708;28;20202;-67
2022/07/16 05:26:07;;;;;;;4.45;1.20;;;;;;;20.42;54.62;99257.97;5102767;28;20032;-67
2022/07/16 05:28:32;;;;;;;1.63;1.20;;;;;;;20.57;54.19;99258.69;5102436;28;20052;-67
2022/07/16 05:30:58;;;;;;;3.47;1.15;;;;;;;20.72;53.87;99269.13;5113239;28;20027;-67
2022/07/16 05:33:24;;;;;;;4.35;1.20;;;;;;;20.78;54.11;99272.16;5123337;28;20030;-67
2022/07/16 05:35:50;;;;;;;1.83;1.10;;;;;;;20.71;54.04;99272.69;5107016;28;20016;-67
2022/07/16 05:38:16;;;;;;;1.77;1.35;;;;;;;20.75;53.49;99267.13;5102872;28;20020;-67
2022/07/16 05:40:41;;;;;;;3.75;1.10;;;;;;;20.77;54.97;99275.72;5102533;28;20346;-66
2022/07/16 05:43:07;;;;;;;6.50;1.40;;;;;;;20.42;54.59;99271.13;5102708;28;20058;-67
2022/07/16 05:45:33;;;;;;;3.13;1.23;;;;;;;20.37;55.58;99272.41;5102432;28;20031;-67
2022/07/16 05:47:59;;;;;;;2.65;1.20;;;;;;;20.56;54.92;99270.16;5102367;28;20055;-66
2022/07/16 05:50:25;;;;;;;2.58;1.10;;;;;;;20.71;55.68;99270.06;5102484;28;20047;-66
2022/07/16 05:52:50;;;;;;;3.33;1.35;;;;;;;20.83;55.66;99269.19;5102582;28;20028;-67
2022/07/16 05:55:16;;;;;;;5.90;1.88;;;;;;;20.95;55.17;99272.75;5102472;28;20084;-66
2022/07/16 05:57:42;;;;;;;1.85;1.20;;;;;;;20.95;55.16;99270.09;5102450;28;20052;-67
2022/07/16 06:00:10;;;;;;;3.28;1.20;;;;;;;21.03;55.24;99279.16;5102379;28;20190;-66
2022/07/16 06:02:37;;;;;;;3.00;1.33;;;;;;;21.04;54.50;99277.38;5102143;28;20039;-66
2022/07/16 06:05:03;;;;;;;1.92;1.17;;;;;;;21.15;54.45;99274.81;5102460;28;20051;-66
2022/07/16 06:07:29;;;;;;;2.38;1.15;;;;;;;21.13;54.77;99276.69;5102198;28;20020;-66
2022/07/16 06:09:55;;;;;;;1.85;1.20;;;;;;;20.91;52.91;99280.03;5102362;28;20032;-66
2022/07/16 06:12:20;;;;;;;4.68;1.20;;;;;;;20.89;53.12;99288.97;5102203;28;20320;-66
2022/07/16 06:14:46;;;;;;;3.47;1.30;;;;;;;20.97;53.52;99284.84;5102252;28;20028;-66
2022/07/16 06:17:13;;;;;;;2.03;1.08;;;;;;;21.01;52.75;99288.13;5102173;28;20189;-66
2022/07/16 06:19:42;;;;;;;2.88;1.20;;;;;;;21.04;52.38;99282.63;5102103;28;20059;-69
2022/07/16 06:22:09;;;;;;;2.38;0.95;;;;;;;20.99;52.39;99275.06;5103792;28;20032;-67
2022/07/16 06:24:34;;;;;;;2.75;1.30;;;;;;;21.11;52.26;99289.13;5106343;28;20342;-67
2022/07/16 06:27:00;;;;;;;3.30;1.40;;;;;;;21.25;52.94;99285.50;5106036;28;20063;-67
2022/07/16 06:29:26;;;;;;;4.18;1.20;;;;;;;21.21;51.54;99289.31;5106149;28;20052;-67
2022/07/16 06:31:51;;;;;;;6.47;1.13;;;;;;;21.38;52.29;99293.38;5124179;28;20284;-66
2022/07/16 06:34:17;;;;;;;2.30;1.10;;;;;;;21.50;51.55;99289.81;5124193;28;20095;-67
2022/07/16 06:36:43;;;;;;;3.47;1.38;;;;;;;21.56;51.65;99291.19;5106024;28;20347;-67
2022/07/16 06:39:09;;;;;;;4.07;1.35;;;;;;;21.56;51.63;99288.56;5106038;28;20024;-68
2022/07/16 06:41:37;;;;;;;2.53;1.10;;;;;;;21.54;50.82;99293.94;5105785;28;20391;-67
2022/07/16 06:44:05;;;;;;;2.47;1.35;;;;;;;21.59;51.03;99298.91;5105988;28;20035;-68
2022/07/16 06:46:30;;;;;;;2.65;1.60;;;;;;;21.66;50.95;99286.94;5105459;28;20094;-68
2022/07/16 06:48:56;;;;;;;2.08;1.40;;;;;;;21.69;51.83;99293.75;5105824;28;20344;-68
2022/07/16 06:51:21;;;;;;;2.42;1.30;;;;;;;21.68;50.32;99295.56;5105769;28;20027;-67
2022/07/16 06:53:47;;;;;;;2.92;1.30;;;;;;;21.60;48.80;99282.09;5105644;28;20320;-67
2022/07/16 06:56:13;;;;;;;4.15;1.42;;;;;;;21.39;48.28;99287.13;5105640;28;20051;-67
2022/07/16 06:58:39;;;;;;;2.53;1.25;;;;;;;21.71;49.33;99289.22;5105421;28;20031;-67
2022/07/16 07:01:04;;;;;;;2.88;1.23;;;;;;;21.68;49.55;99292.09;5105680;28;20020;-67
2022/07/16 07:03:30;;;;;;;3.17;1.20;;;;;;;21.76;49.78;99284.44;5105566;28;20241;-67
2022/07/16 07:05:57;;;;;;;2.58;1.38;;;;;;;21.85;49.62;99291.69;5105237;28;20320;-67
2022/07/16 07:08:22;;;;;;;4.00;1.48;;;;;;;21.88;49.22;99291.44;5105191;28;20031;-67
2022/07/16 07:10:48;;;;;;;4.55;1.20;;;;;;;21.88;49.29;99291.44;5104286;28;20252;-67
2022/07/16 07:13:13;;;;;;;2.80;1.27;;;;;;;21.81;48.60;99292.84;5105327;28;20080;-67
2022/07/16 07:15:39;;;;;;;3.30;1.20;;;;;;;21.86;49.01;99292.50;5105361;28;20027;-67
2022/07/16 07:18:05;;;;;;;4.32;1.30;;;;;;;22.01;49.00;99288.72;5104999;28;20046;-67
2022/07/16 07:20:30;;;;;;;2.75;1.33;;;;;;;22.06;49.66;99293.63;5103826;28;20027;-66
2022/07/16 07:22:56;;;;;;;2.53;1.45;;;;;;;22.21;49.36;99291.66;5105242;28;20407;-66
2022/07/16 07:25:22;;;;;;;4.50;1.50;;;;;;;22.16;49.49;99302.56;5105145;28;20070;-66
2022/07/16 07:27:48;;;;;;;3.40;1.60;;;;;;;22.23;48.81;99303.78;5105377;28;20047;-66
2022/07/16 07:30:13;;;;;;;2.42;1.25;;;;;;;22.18;47.13;99299.81;5104864;28;20042;-66
2022/07/16 07:32:39;;;;;;;2.70;1.20;;;;;;;22.08;47.43;99310.22;5103750;28;20031;-67
2022/07/16 07:35:06;;;;;;;3.75;1.20;;;;;;;21.76;48.26;99304.69;5104075;28;20024;-67
2022/07/16 07:37:31;;;;;;;6.47;1.35;;;;;;;21.94;47.93;99299.88;5104645;28;20032;-67
2022/07/16 07:39:57;;;;;;;2.78;1.63;;;;;;;22.02;47.50;99302.78;5104945;28;20062;-67
2022/07/16 07:42:23;;;;;;;5.30;1.58;;;;;;;22.12;47.83;99298.47;5100549;28;20329;-67
2022/07/16 07:44:48;;;;;;;2.45;1.40;;;;;;;22.18;48.17;99291.88;5098009;28;20043;-67
2022/07/16 07:47:14;;;;;;;5.57;1.30;;;;;;;22.37;49.24;99299.25;5103379;28;20036;-67
2022/07/16 07:49:40;;;;;;;2.72;1.15;;;;;;;22.49;48.53;99303.59;5103333;28;20059;-67
2022/07/16 07:52:07;;;;;;;3.63;1.20;;;;;;;22.63;48.23;99299.03;5104699;28;20024;-67
2022/07/16 07:54:32;;;;;;;4.45;1.35;;;;;;;22.73;46.59;99306.13;5103225;28;20032;-68
2022/07/16 07:56:58;;;;;;;4.15;1.42;;;;;;;22.73;46.01;99295.56;5104480;28;20027;-66
2022/07/16 07:59:23;;;;;;;1.42;1.20;;;;;;;22.79;46.46;99298.66;5104494;28;20019;-67
2022/07/16 08:01:49;;;;;;;2.47;1.40;;;;;;;22.55;46.60;99302.28;5104123;28;20027;-67
2022/07/16 08:04:15;;;;;;;3.55;1.30;;;;;;;22.45;46.31;99306.59;5104234;28;20035;-66
2022/07/16 08:06:41;;;;;;;2.70;1.38;;;;;;;22.29;45.96;99297.19;5104253;28;20028;-66
2022/07/16 08:09:06;;;;;;;4.13;1.60;;;;;;;22.34;45.41;99299.50;5104573;28;20383;-66
2022/07/16 08:11:32;;;;;;;3.03;1.20;;;;;;;22.38;46.18;99308.88;5104018;28;20015;-67
2022/07/16 08:13:58;;;;;;;1.88;1.25;;;;;;;22.31;45.15;99302.34;5101786;28;20027;-67
2022/07/16 08:16:24;;;;;;;3.95;1.33;;;;;;;22.22;47.15;99302.09;5102838;28;20048;-66
2022/07/16 08:18:49;;;;;;;2.50;1.08;;;;;;;22.18;47.17;99311.19;5102851;28;20116;-66
2022/07/16 08:21:15;;;;;;;1.95;1.30;;;;;;;22.38;46.88;99300.94;5104179;28;20020;-66
2022/07/16 08:26:30;;;;;;;2.83;1.17;;;;;;;22.64;45.15;99306.84;5064642;28;20051;-66
2022/07/16 08:28:55;;;;;;;1.63;1.48;;;;;;;22.56;46.69;99312.72;5090467;28;20028;-67
2022/07/16 08:31:21;;;;;;;2.13;1.50;;;;;;;22.55;47.24;99315.47;5095460;28;20050;-67
2022/07/16 08:33:46;;;;;;;2.75;1.40;;;;;;;22.62;46.66;99313.19;5083669;28;20209;-67
2022/07/16 08:36:12;;;;;;;3.40;1.25;;;;;;;22.79;45.71;99315.38;5103114;28;20027;-67
2022/07/16 08:38:38;;;;;;;2.50;1.38;;;;;;;22.96;46.34;99303.47;5103314;28;20087;-66
2022/07/16 08:41:05;;;;;;;2.63;1.40;;;;;;;22.91;45.57;99309.09;5103723;28;20031;-67
2022/07/16 08:43:31;;;;;;;4.15;1.50;;;;;;;22.92;44.62;99308.16;5103502;28;20039;-66
2022/07/16 08:45:57;;;;;;;3.08;1.40;;;;;;;23.18;45.10;99313.19;5102388;28;20027;-67
2022/07/16 08:48:24;;;;;;;3.00;1.50;;;;;;;23.25;45.96;99308.25;5103297;28;20024;-67
2022/07/16 08:50:53;;;;;;;2.70;1.70;;;;;;;23.14;45.46;99276.56;5103581;28;20316;-67
2022/07/16 08:53:23;;;;;;;3.25;1.73;;;;;;;23.28;44.39;99276.28;5103477;28;20028;-67
2022/07/16 08:55:54;;;;;;;3.35;1.00;;;;;;;23.39;44.98;99275.44;5103345;28;20023;-67
2022/07/16 08:58:20;;;;;;;3.28;1.30;;;;;;;23.51;44.27;99311.41;5102887;28;20309;-67
2022/07/16 09:00:45;;;;;;;4.95;2.55;;;;;;;23.39;44.28;99315.91;5103212;28;20043;-67
2022/07/16 09:03:15;;;;;;;5.13;1.85;;;;;;;23.44;44.55;99310.25;5103018;28;20105;-67
2022/07/16 09:05:41;;;;;;;1.67;1.30;;;;;;;23.33;44.03;99307.63;5102638;28;20131;-68
2022/07/16 09:08:07;;;;;;;2.00;1.30;;;;;;;23.40;45.00;99308.81;5102665;28;20030;-68
2022/07/16 09:10:37;;;;;;;3.88;1.65;;;;;;;23.50;45.58;99316.84;5103032;28;20039;-68
2022/07/16 09:13:04;;;;;;;3.10;1.73;;;;;;;23.32;45.27;99319.19;5101960;28;20146;-67
2022/07/16 09:15:38;;;;;;;2.53;1.60;;;;;;;23.42;44.85;99309.53;5102680;28;20020;-67
2022/07/16 09:18:12;;;;;;;2.70;1.52;;;;;;;23.47;44.91;99323.19;5102475;28;20035;-67
2022/07/16 09:20:43;;;;;;;3.40;1.77;;;;;;;23.21;44.63;99278.59;5102780;28;20028;-67
2022/07/16 09:23:25;;;;;;;2.08;1.48;;;;;;;23.11;44.75;99272.38;5102925;28;20081;-67
2022/07/16 09:25:51;;;;;;;;;;;;;;;23.59;45.55;99306.34;5103585;28;20055;-67
2022/07/16 09:28:18;;;;;;;4.05;1.63;;;;;;;23.58;44.20;99302.03;5102796;28;19912;-67
2022/07/16 09:30:43;;;;;;;2.28;1.50;;;;;;;23.53;45.05;99306.00;5102908;28;20059;-67
2022/07/16 09:33:16;;;;;;;1.45;1.35;;;;;;;23.19;45.31;99284.97;5102865;28;20391;-68
2022/07/16 09:35:42;;;;;;;2.92;1.50;;;;;;;23.47;45.85;99315.28;5102444;28;20087;-67
2022/07/16 09:38:09;;;;;;;1.92;1.67;;;;;;;23.69;43.97;99308.25;5102380;28;20047;-68
2022/07/16 09:40:46;;;;;;;3.08;1.63;;;;;;;23.56;43.99;99321.66;5101119;28;20053;-68
2022/07/16 09:43:15;;;;;;;2.55;1.40;;;;;;;23.78;44.65;99308.31;5102266;28;20380;-67
2022/07/16 09:45:45;;;;;;;1.50;1.38;;;;;;;23.73;43.86;99309.69;5101798;28;20376;-67
2022/07/16 09:48:23;;;;;;;1.30;1.20;;;;;;;23.31;45.53;99277.84;5102197;28;20069;-67
2022/07/16 09:50:50;;;;;;;3.05;1.45;;;;;;;23.51;45.40;99316.72;5102495;28;20409;-66
2022/07/16 09:53:19;;;;;;;2.97;1.67;;;;;;;23.09;44.64;99276.91;5102355;28;20081;-67
2022/07/16 09:55:56;;;;;;;1.52;1.40;;;;;;;23.39;44.51;99315.09;5101453;28;20193;-67
2022/07/16 09:58:22;;;;;;;3.10;1.52;;;;;;;23.49;44.48;99313.38;5101965;28;20034;-67
2022/07/16 10:00:47;;;;;;;3.53;1.45;;;;;;;23.27;44.52;99312.47;5102377;28;20020;-67
2022/07/16 10:03:14;;;;;;;4.55;1.20;;;;;;;23.18;43.71;99310.53;5102392;28;20024;-67
2022/07/16 10:05:41;;;;;;;3.65;1.33;;;;;;;23.06;45.43;99322.09;5102145;28;20087;-67
2022/07/16 10:08:06;;;;;;;3.47;1.50;;;;;;;23.25;44.30;99314.38;5102000;28;20031;-66
2022/07/16 10:10:32;;;;;;;1.65;1.10;;;;;;;23.52;43.43;99314.94;5102379;28;20567;-67
2022/07/16 10:12:58;;;;;;;2.88;1.48;;;;;;;23.25;42.74;99322.31;5102411;28;20098;-66
2022/07/16 10:15:23;;;;;;;3.38;1.50;;;;;;;23.25;43.37;99322.31;5102056;28;20024;-67
2022/07/16 10:17:49;;;;;;;3.55;1.20;;;;;;;23.15;44.13;99323.19;5101996;28;20220;-67
2022/07/16 10:20:19;;;;;;;1.98;1.13;;;;;;;23.07;44.78;99321.09;5102448;28;20035;-68
2022/07/16 10:22:47;;;;;;;2.90;1.17;;;;;;;22.99;44.38;99326.13;5101992;28;20024;-67
2022/07/16 10:25:16;;;;;;;1.83;1.05;;;;;;;22.82;43.09;99315.13;5102180;28;20354;-67
2022/07/16 10:27:43;;;;;;;1.73;1.35;;;;;;;22.90;44.95;99310.09;5081723;28;20296;-67
2022/07/16 10:30:14;;;;;;;1.52;1.10;;;;;;;22.91;44.12;99314.38;5097869;28;20048;-67
2022/07/16 10:32:58;;;;;;;8.98;1.40;;;;;;;22.96;43.96;99308.75;5092446;28;20578;-67
2022/07/16 10:35:48;;;;;;;3.15;1.40;;;;;;;22.81;44.01;99273.81;5096953;28;20027;-68
2022/07/16 10:38:26;;;;;;;4.68;1.10;;;;;;;23.11;43.93;99314.63;5101864;28;20028;-67
2022/07/16 10:41:15;;;;;;;1.20;1.10;;;;;;;23.21;43.28;99320.03;5102189;28;20087;-67
2022/07/16 10:43:43;;;;;;;3.03;1.20;;;;;;;23.10;44.45;99321.72;5102041;28;20031;-66
2022/07/16 10:46:11;;;;;;;1.80;1.35;;;;;;;23.10;44.83;99326.13;5090713;28;20088;-68
2022/07/16 10:48:37;;;;;;;2.30;1.20;;;;;;;23.07;44.26;99319.31;5092897;28;20313;-68
2022/07/16 10:51:13;;;;;;;3.50;1.25;;;;;;;23.09;43.64;99321.84;5094620;28;20036;-67
2022/07/16 10:54:03;;;;;;;4.20;1.30;;;;;;;22.88;43.95;99330.47;5095171;28;20103;-67
2022/07/16 10:56:37;;;;;;;1.60;1.20;;;;;;;22.91;43.17;99334.69;5092072;28;20039;-68
2022/07/16 10:59:04;;;;;;;2.67;1.30;;;;;;;22.89;43.04;99326.06;5097848;28;20024;-67
2022/07/16 11:01:30;;;;;;;1.48;1.38;;;;;;;22.86;44.19;99324.50;5101546;28;20329;-67
2022/07/16 11:03:55;;;;;;;3.80;2.15;;;;;;;23.05;43.59;99325.69;5101615;28;20020;-68
2022/07/16 11:06:22;;;;;;;1.83;1.20;;;;;;;23.16;44.06;99333.63;5094407;28;20035;-67
2022/07/16 11:08:58;;;;;;;2.15;1.25;;;;;;;23.29;41.93;99332.63;5089251;28;20056;-66
2022/07/16 11:11:34;;;;;;;3.88;1.38;;;;;;;23.30;42.05;99315.81;5096879;28;20020;-64
2022/07/16 11:14:01;;;;;;;3.35;1.30;;;;;;;23.43;42.38;99321.81;5096746;28;20249;-64
2022/07/16 11:16:27;;;;;;;3.33;1.17;;;;;;;23.47;41.78;99328.50;5105141;28;20083;-65
2022/07/16 11:18:53;;;;;;;1.35;0.95;;;;;;;23.66;41.61;99324.34;5105336;28;20028;-64
2022/07/16 11:21:18;;;;;;;2.00;1.08;;;;;;;23.65;41.40;99320.03;5105343;28;20035;-64
2022/07/16 11:23:51;;;;;;;2.00;1.30;;;;;;;23.79;41.72;99327.69;5105049;28;20032;-65
2022/07/16 11:26:17;;;;;;;2.75;1.25;;;;;;;23.92;42.14;99328.34;5104861;28;20042;-65
2022/07/16 11:29:10;;;;;;;2.65;1.50;;;;;;;23.92;41.53;99316.94;5104967;28;20056;-65
2022/07/16 11:31:36;;;;;;;4.55;1.20;;;;;;;24.04;41.93;99329.16;5117019;28;20071;-66
2022/07/16 11:34:08;;;;;;;5.30;1.00;;;;;;;23.69;39.84;99303.78;5125432;28;20030;-64
2022/07/16 11:36:38;;;;;;;5.78;1.38;;;;;;;23.64;40.01;99321.00;5106193;28;20027;-65
2022/07/16 11:39:07;;;;;;;2.35;1.00;;;;;;;23.41;40.71;99286.72;5104880;28;20099;-65